sensor_id;sensor_type;location;lat;lon;timestamp;P1;durP1;ratioP1;P2;durP2;ratioP2
2838;SDS011;1427;48.510;9.060;2023-05-07T00:01:34;49.80;;;3.47;;
2838;SDS011;1427;48.510;9.060;2023-05-07T00:04:02;50.07;;;3.03;;
2838;SDS011;1427;48.510;9.060;2023-05-07T00:06:31;47.47;;;2.70;;
2838;SDS011;1427;48.510;9.060;2023-05-07T00:09:00;47.80;;;2.77;;
2838;SDS011;1427;48.510;9.060;2023-05-07T00:11:28;46.90;;;2.53;;
2838;SDS011;1427;48.510;9.060;2023-05-07T00:13:57;47.17;;;2.70;;
2838;SDS011;1427;48.510;9.060;2023-05-07T00:16:25;48.17;;;2.80;;
2838;SDS011;1427;48.510;9.060;2023-05-07T00:18:53;49.57;;;3.57;;
2838;SDS011;1427;48.510;9.060;2023-05-07T00:21:21;51.93;;;3.63;;
2838;SDS011;1427;48.510;9.060;2023-05-07T00:23:52;47.30;;;2.67;;
2838;SDS011;1427;48.510;9.060;2023-05-07T00:26:20;47.00;;;3.13;;
2838;SDS011;1427;48.510;9.060;2023-05-07T00:28:49;47.87;;;2.60;;
2838;SDS011;1427;48.510;9.060;2023-05-07T00:31:18;48.10;;;2.87;;
2838;SDS011;1427;48.510;9.060;2023-05-07T00:33:46;48.07;;;2.30;;
2838;SDS011;1427;48.510;9.060;2023-05-07T00:36:14;48.70;;;3.03;;
2838;SDS011;1427;48.510;9.060;2023-05-07T00:38:42;48.07;;;2.33;;
2838;SDS011;1427;48.510;9.060;2023-05-07T00:41:10;46.77;;;2.17;;
2838;SDS011;1427;48.510;9.060;2023-05-07T00:43:38;51.00;;;2.23;;
2838;SDS011;1427;48.510;9.060;2023-05-07T00:46:06;48.33;;;2.90;;
2838;SDS011;1427;48.510;9.060;2023-05-07T00:48:35;47.13;;;2.80;;
2838;SDS011;1427;48.510;9.060;2023-05-07T00:51:03;46.83;;;2.30;;
2838;SDS011;1427;48.510;9.060;2023-05-07T00:53:32;47.77;;;2.63;;
2838;SDS011;1427;48.510;9.060;2023-05-07T00:55:59;47.90;;;2.97;;
2838;SDS011;1427;48.510;9.060;2023-05-07T00:58:28;48.43;;;2.70;;
2838;SDS011;1427;48.510;9.060;2023-05-07T01:00:57;49.40;;;2.80;;
2838;SDS011;1427;48.510;9.060;2023-05-07T01:03:25;48.00;;;2.50;;
2838;SDS011;1427;48.510;9.060;2023-05-07T01:05:55;47.40;;;2.40;;
2838;SDS011;1427;48.510;9.060;2023-05-07T01:08:26;48.03;;;2.50;;
2838;SDS011;1427;48.510;9.060;2023-05-07T01:10:55;47.57;;;2.50;;
2838;SDS011;1427;48.510;9.060;2023-05-07T01:13:24;48.23;;;2.90;;
2838;SDS011;1427;48.510;9.060;2023-05-07T01:15:53;47.07;;;2.40;;
2838;SDS011;1427;48.510;9.060;2023-05-07T01:18:21;47.20;;;2.37;;
2838;SDS011;1427;48.510;9.060;2023-05-07T01:20:49;49.13;;;2.50;;
2838;SDS011;1427;48.510;9.060;2023-05-07T01:23:18;47.53;;;2.57;;
2838;SDS011;1427;48.510;9.060;2023-05-07T01:25:50;47.47;;;2.17;;
2838;SDS011;1427;48.510;9.060;2023-05-07T01:28:19;48.30;;;2.73;;
2838;SDS011;1427;48.510;9.060;2023-05-07T01:30:48;47.53;;;2.30;;
2838;SDS011;1427;48.510;9.060;2023-05-07T01:33:20;52.40;;;3.30;;
2838;SDS011;1427;48.510;9.060;2023-05-07T01:35:50;47.20;;;2.53;;
2838;SDS011;1427;48.510;9.060;2023-05-07T01:38:21;47.87;;;2.07;;
2838;SDS011;1427;48.510;9.060;2023-05-07T01:40:50;49.23;;;3.13;;
2838;SDS011;1427;48.510;9.060;2023-05-07T01:43:18;48.00;;;2.77;;
2838;SDS011;1427;48.510;9.060;2023-05-07T01:45:47;47.77;;;2.47;;
2838;SDS011;1427;48.510;9.060;2023-05-07T01:48:16;46.27;;;2.10;;
2838;SDS011;1427;48.510;9.060;2023-05-07T01:50:45;47.17;;;2.63;;
2838;SDS011;1427;48.510;9.060;2023-05-07T01:53:14;47.07;;;2.70;;
2838;SDS011;1427;48.510;9.060;2023-05-07T01:55:43;47.00;;;2.40;;
2838;SDS011;1427;48.510;9.060;2023-05-07T01:58:11;48.43;;;3.07;;
2838;SDS011;1427;48.510;9.060;2023-05-07T02:00:40;48.70;;;2.93;;
2838;SDS011;1427;48.510;9.060;2023-05-07T02:03:08;47.90;;;2.63;;
2838;SDS011;1427;48.510;9.060;2023-05-07T02:05:36;47.87;;;2.60;;
2838;SDS011;1427;48.510;9.060;2023-05-07T02:08:04;48.23;;;3.03;;
2838;SDS011;1427;48.510;9.060;2023-05-07T02:10:32;47.57;;;2.20;;
2838;SDS011;1427;48.510;9.060;2023-05-07T02:13:03;48.00;;;2.93;;
2838;SDS011;1427;48.510;9.060;2023-05-07T02:15:31;48.47;;;3.27;;
2838;SDS011;1427;48.510;9.060;2023-05-07T02:18:03;49.23;;;2.80;;
2838;SDS011;1427;48.510;9.060;2023-05-07T02:20:32;47.37;;;2.90;;
2838;SDS011;1427;48.510;9.060;2023-05-07T02:23:00;47.60;;;2.87;;
2838;SDS011;1427;48.510;9.060;2023-05-07T02:25:28;47.80;;;2.97;;
2838;SDS011;1427;48.510;9.060;2023-05-07T02:27:56;47.27;;;2.87;;
2838;SDS011;1427;48.510;9.060;2023-05-07T02:30:26;48.53;;;2.70;;
2838;SDS011;1427;48.510;9.060;2023-05-07T02:32:54;47.67;;;2.40;;
2838;SDS011;1427;48.510;9.060;2023-05-07T02:35:23;47.20;;;2.43;;
2838;SDS011;1427;48.510;9.060;2023-05-07T02:37:51;47.80;;;2.60;;
2838;SDS011;1427;48.510;9.060;2023-05-07T02:40:20;47.73;;;2.80;;
2838;SDS011;1427;48.510;9.060;2023-05-07T02:42:48;47.00;;;2.40;;
2838;SDS011;1427;48.510;9.060;2023-05-07T02:45:16;47.33;;;2.40;;
2838;SDS011;1427;48.510;9.060;2023-05-07T02:47:45;47.63;;;2.70;;
2838;SDS011;1427;48.510;9.060;2023-05-07T02:50:13;47.90;;;2.20;;
2838;SDS011;1427;48.510;9.060;2023-05-07T02:52:41;47.50;;;2.60;;
2838;SDS011;1427;48.510;9.060;2023-05-07T02:55:09;48.00;;;2.70;;
2838;SDS011;1427;48.510;9.060;2023-05-07T02:57:38;46.80;;;2.47;;
2838;SDS011;1427;48.510;9.060;2023-05-07T03:00:12;47.80;;;2.57;;
2838;SDS011;1427;48.510;9.060;2023-05-07T03:02:41;47.73;;;2.30;;
2838;SDS011;1427;48.510;9.060;2023-05-07T03:05:11;50.50;;;3.07;;
2838;SDS011;1427;48.510;9.060;2023-05-07T03:07:40;48.27;;;2.70;;
2838;SDS011;1427;48.510;9.060;2023-05-07T03:10:11;48.43;;;2.97;;
2838;SDS011;1427;48.510;9.060;2023-05-07T03:12:39;47.57;;;2.77;;
2838;SDS011;1427;48.510;9.060;2023-05-07T03:15:08;47.47;;;2.40;;
2838;SDS011;1427;48.510;9.060;2023-05-07T03:17:36;46.23;;;2.00;;
2838;SDS011;1427;48.510;9.060;2023-05-07T03:20:06;47.73;;;2.80;;
2838;SDS011;1427;48.510;9.060;2023-05-07T03:22:37;47.60;;;2.43;;
2838;SDS011;1427;48.510;9.060;2023-05-07T03:25:06;47.30;;;2.90;;
2838;SDS011;1427;48.510;9.060;2023-05-07T03:27:36;47.30;;;2.30;;
2838;SDS011;1427;48.510;9.060;2023-05-07T03:30:04;46.53;;;2.37;;
2838;SDS011;1427;48.510;9.060;2023-05-07T03:32:34;47.37;;;2.67;;
2838;SDS011;1427;48.510;9.060;2023-05-07T03:35:02;48.40;;;2.57;;
2838;SDS011;1427;48.510;9.060;2023-05-07T03:37:31;47.53;;;2.33;;
2838;SDS011;1427;48.510;9.060;2023-05-07T03:40:00;46.87;;;2.50;;
2838;SDS011;1427;48.510;9.060;2023-05-07T03:42:29;48.47;;;3.17;;
2838;SDS011;1427;48.510;9.060;2023-05-07T03:44:57;49.27;;;3.20;;
2838;SDS011;1427;48.510;9.060;2023-05-07T03:47:25;46.77;;;2.20;;
2838;SDS011;1427;48.510;9.060;2023-05-07T03:49:54;48.30;;;2.57;;
2838;SDS011;1427;48.510;9.060;2023-05-07T03:52:23;49.70;;;3.03;;
2838;SDS011;1427;48.510;9.060;2023-05-07T03:54:52;48.33;;;2.20;;
2838;SDS011;1427;48.510;9.060;2023-05-07T03:57:21;47.90;;;2.73;;
2838;SDS011;1427;48.510;9.060;2023-05-07T03:59:50;48.10;;;3.40;;
2838;SDS011;1427;48.510;9.060;2023-05-07T04:02:17;48.50;;;3.30;;
2838;SDS011;1427;48.510;9.060;2023-05-07T04:04:45;48.00;;;2.67;;
2838;SDS011;1427;48.510;9.060;2023-05-07T04:07:15;48.03;;;2.70;;
2838;SDS011;1427;48.510;9.060;2023-05-07T04:09:44;49.27;;;4.23;;
2838;SDS011;1427;48.510;9.060;2023-05-07T04:12:11;50.60;;;7.00;;
2838;SDS011;1427;48.510;9.060;2023-05-07T04:14:41;50.80;;;6.03;;
2838;SDS011;1427;48.510;9.060;2023-05-07T04:17:09;51.30;;;5.80;;
2838;SDS011;1427;48.510;9.060;2023-05-07T04:19:37;52.20;;;7.87;;
2838;SDS011;1427;48.510;9.060;2023-05-07T04:22:05;49.57;;;5.80;;
2838;SDS011;1427;48.510;9.060;2023-05-07T04:24:33;49.27;;;5.87;;
2838;SDS011;1427;48.510;9.060;2023-05-07T04:27:01;49.47;;;5.60;;
2838;SDS011;1427;48.510;9.060;2023-05-07T04:29:29;51.00;;;5.60;;
2838;SDS011;1427;48.510;9.060;2023-05-07T04:31:59;75.63;;;7.70;;
2838;SDS011;1427;48.510;9.060;2023-05-07T04:34:27;50.90;;;6.00;;
2838;SDS011;1427;48.510;9.060;2023-05-07T04:36:57;51.50;;;6.50;;
2838;SDS011;1427;48.510;9.060;2023-05-07T04:39:26;49.20;;;5.80;;
2838;SDS011;1427;48.510;9.060;2023-05-07T04:41:54;49.20;;;5.67;;
2838;SDS011;1427;48.510;9.060;2023-05-07T04:44:21;51.50;;;6.70;;
2838;SDS011;1427;48.510;9.060;2023-05-07T04:46:49;49.23;;;5.70;;
2838;SDS011;1427;48.510;9.060;2023-05-07T04:49:19;49.13;;;5.67;;
2838;SDS011;1427;48.510;9.060;2023-05-07T04:51:47;52.00;;;5.70;;
2838;SDS011;1427;48.510;9.060;2023-05-07T04:54:15;50.60;;;6.13;;
2838;SDS011;1427;48.510;9.060;2023-05-07T04:56:43;49.80;;;5.83;;
2838;SDS011;1427;48.510;9.060;2023-05-07T04:59:11;51.60;;;7.70;;
2838;SDS011;1427;48.510;9.060;2023-05-07T05:01:39;51.47;;;5.97;;
2838;SDS011;1427;48.510;9.060;2023-05-07T05:04:07;50.67;;;5.90;;
2838;SDS011;1427;48.510;9.060;2023-05-07T05:06:36;50.33;;;6.00;;
2838;SDS011;1427;48.510;9.060;2023-05-07T05:09:04;51.50;;;6.00;;
2838;SDS011;1427;48.510;9.060;2023-05-07T05:11:32;53.03;;;6.10;;
2838;SDS011;1427;48.510;9.060;2023-05-07T05:14:00;49.73;;;4.93;;
2838;SDS011;1427;48.510;9.060;2023-05-07T05:16:28;48.90;;;5.27;;
2838;SDS011;1427;48.510;9.060;2023-05-07T05:18:56;51.70;;;6.37;;
2838;SDS011;1427;48.510;9.060;2023-05-07T05:21:24;50.23;;;6.70;;
2838;SDS011;1427;48.510;9.060;2023-05-07T05:23:54;51.07;;;6.43;;
2838;SDS011;1427;48.510;9.060;2023-05-07T05:26:22;52.17;;;5.20;;
2838;SDS011;1427;48.510;9.060;2023-05-07T05:28:50;49.73;;;5.27;;
2838;SDS011;1427;48.510;9.060;2023-05-07T05:31:17;50.80;;;5.37;;
2838;SDS011;1427;48.510;9.060;2023-05-07T05:33:46;49.60;;;5.00;;
2838;SDS011;1427;48.510;9.060;2023-05-07T05:36:14;51.80;;;6.10;;
2838;SDS011;1427;48.510;9.060;2023-05-07T05:38:42;49.20;;;5.00;;
2838;SDS011;1427;48.510;9.060;2023-05-07T05:41:11;53.77;;;5.17;;
2838;SDS011;1427;48.510;9.060;2023-05-07T05:43:39;49.97;;;5.40;;
2838;SDS011;1427;48.510;9.060;2023-05-07T05:46:07;51.60;;;5.40;;
2838;SDS011;1427;48.510;9.060;2023-05-07T05:48:38;56.83;;;6.40;;
2838;SDS011;1427;48.510;9.060;2023-05-07T05:51:06;53.53;;;5.07;;
2838;SDS011;1427;48.510;9.060;2023-05-07T05:53:34;50.20;;;5.10;;
2838;SDS011;1427;48.510;9.060;2023-05-07T05:56:02;49.20;;;4.57;;
2838;SDS011;1427;48.510;9.060;2023-05-07T05:58:31;51.00;;;5.00;;
2838;SDS011;1427;48.510;9.060;2023-05-07T06:01:00;48.50;;;4.97;;
2838;SDS011;1427;48.510;9.060;2023-05-07T06:03:28;49.10;;;5.23;;
2838;SDS011;1427;48.510;9.060;2023-05-07T06:05:57;51.00;;;5.00;;
2838;SDS011;1427;48.510;9.060;2023-05-07T06:08:28;51.60;;;5.10;;
2838;SDS011;1427;48.510;9.060;2023-05-07T06:10:57;48.57;;;5.10;;
2838;SDS011;1427;48.510;9.060;2023-05-07T06:13:26;50.90;;;5.70;;
2838;SDS011;1427;48.510;9.060;2023-05-07T06:15:55;49.50;;;4.67;;
2838;SDS011;1427;48.510;9.060;2023-05-07T06:18:23;51.70;;;6.60;;
2838;SDS011;1427;48.510;9.060;2023-05-07T06:20:52;48.90;;;5.00;;
2838;SDS011;1427;48.510;9.060;2023-05-07T06:23:20;57.17;;;6.20;;
2838;SDS011;1427;48.510;9.060;2023-05-07T06:25:49;49.87;;;5.87;;
2838;SDS011;1427;48.510;9.060;2023-05-07T06:28:17;50.30;;;6.17;;
2838;SDS011;1427;48.510;9.060;2023-05-07T06:30:45;51.80;;;5.57;;
2838;SDS011;1427;48.510;9.060;2023-05-07T06:33:16;52.60;;;6.30;;
2838;SDS011;1427;48.510;9.060;2023-05-07T06:35:45;49.10;;;5.67;;
2838;SDS011;1427;48.510;9.060;2023-05-07T06:38:14;49.30;;;5.13;;
2838;SDS011;1427;48.510;9.060;2023-05-07T06:40:41;49.50;;;5.03;;
2838;SDS011;1427;48.510;9.060;2023-05-07T06:43:09;52.67;;;5.03;;
2838;SDS011;1427;48.510;9.060;2023-05-07T06:45:37;49.20;;;5.10;;
2838;SDS011;1427;48.510;9.060;2023-05-07T06:48:06;49.67;;;5.07;;
2838;SDS011;1427;48.510;9.060;2023-05-07T06:50:35;51.37;;;5.63;;
2838;SDS011;1427;48.510;9.060;2023-05-07T06:53:03;69.83;;;8.27;;
2838;SDS011;1427;48.510;9.060;2023-05-07T06:55:31;53.17;;;7.07;;
2838;SDS011;1427;48.510;9.060;2023-05-07T06:57:59;52.90;;;5.27;;
2838;SDS011;1427;48.510;9.060;2023-05-07T07:00:27;50.17;;;4.93;;
2838;SDS011;1427;48.510;9.060;2023-05-07T07:02:55;48.97;;;4.80;;
2838;SDS011;1427;48.510;9.060;2023-05-07T07:05:23;49.60;;;5.50;;
2838;SDS011;1427;48.510;9.060;2023-05-07T07:07:53;50.07;;;4.90;;
2838;SDS011;1427;48.510;9.060;2023-05-07T07:10:21;56.20;;;6.20;;
2838;SDS011;1427;48.510;9.060;2023-05-07T07:12:49;52.50;;;5.50;;
2838;SDS011;1427;48.510;9.060;2023-05-07T07:15:19;50.97;;;5.97;;
2838;SDS011;1427;48.510;9.060;2023-05-07T07:17:48;49.57;;;5.43;;
2838;SDS011;1427;48.510;9.060;2023-05-07T07:20:16;49.67;;;5.13;;
2838;SDS011;1427;48.510;9.060;2023-05-07T07:22:44;49.60;;;5.13;;
2838;SDS011;1427;48.510;9.060;2023-05-07T07:25:13;49.07;;;5.53;;
2838;SDS011;1427;48.510;9.060;2023-05-07T07:27:42;52.17;;;6.50;;
2838;SDS011;1427;48.510;9.060;2023-05-07T07:30:10;53.00;;;5.40;;
2838;SDS011;1427;48.510;9.060;2023-05-07T07:32:38;51.03;;;6.20;;
2838;SDS011;1427;48.510;9.060;2023-05-07T07:35:07;51.30;;;5.97;;
2838;SDS011;1427;48.510;9.060;2023-05-07T07:37:36;49.70;;;5.20;;
2838;SDS011;1427;48.510;9.060;2023-05-07T07:40:04;49.53;;;5.00;;
2838;SDS011;1427;48.510;9.060;2023-05-07T07:42:35;47.60;;;4.20;;
2838;SDS011;1427;48.510;9.060;2023-05-07T07:45:03;49.97;;;4.90;;
2838;SDS011;1427;48.510;9.060;2023-05-07T07:47:32;59.47;;;7.97;;
2838;SDS011;1427;48.510;9.060;2023-05-07T07:50:00;51.07;;;6.63;;
2838;SDS011;1427;48.510;9.060;2023-05-07T07:52:28;50.67;;;5.20;;
2838;SDS011;1427;48.510;9.060;2023-05-07T07:54:56;49.47;;;5.50;;
2838;SDS011;1427;48.510;9.060;2023-05-07T07:57:24;49.80;;;4.73;;
2838;SDS011;1427;48.510;9.060;2023-05-07T07:59:53;50.60;;;5.73;;
2838;SDS011;1427;48.510;9.060;2023-05-07T08:02:21;55.00;;;6.83;;
2838;SDS011;1427;48.510;9.060;2023-05-07T08:04:50;49.90;;;5.37;;
2838;SDS011;1427;48.510;9.060;2023-05-07T08:07:17;49.13;;;5.13;;
2838;SDS011;1427;48.510;9.060;2023-05-07T08:09:46;50.30;;;5.00;;
2838;SDS011;1427;48.510;9.060;2023-05-07T08:12:14;50.80;;;5.10;;
2838;SDS011;1427;48.510;9.060;2023-05-07T08:14:42;53.70;;;5.83;;
2838;SDS011;1427;48.510;9.060;2023-05-07T08:17:12;49.77;;;5.00;;
2838;SDS011;1427;48.510;9.060;2023-05-07T08:19:42;49.83;;;5.13;;
2838;SDS011;1427;48.510;9.060;2023-05-07T08:22:10;52.37;;;5.33;;
2838;SDS011;1427;48.510;9.060;2023-05-07T08:24:38;50.20;;;5.77;;
2838;SDS011;1427;48.510;9.060;2023-05-07T08:27:06;52.20;;;6.53;;
2838;SDS011;1427;48.510;9.060;2023-05-07T08:29:34;50.33;;;4.60;;
2838;SDS011;1427;48.510;9.060;2023-05-07T08:32:02;53.50;;;6.53;;
2838;SDS011;1427;48.510;9.060;2023-05-07T08:34:31;51.07;;;4.83;;
2838;SDS011;1427;48.510;9.060;2023-05-07T08:36:59;50.83;;;4.73;;
2838;SDS011;1427;48.510;9.060;2023-05-07T08:39:29;50.77;;;4.70;;
2838;SDS011;1427;48.510;9.060;2023-05-07T08:41:57;49.27;;;4.83;;
2838;SDS011;1427;48.510;9.060;2023-05-07T08:44:28;49.83;;;4.73;;
2838;SDS011;1427;48.510;9.060;2023-05-07T08:47:01;50.70;;;5.20;;
2838;SDS011;1427;48.510;9.060;2023-05-07T08:49:29;53.07;;;6.50;;
2838;SDS011;1427;48.510;9.060;2023-05-07T08:52:01;51.00;;;5.37;;
2838;SDS011;1427;48.510;9.060;2023-05-07T08:54:29;51.57;;;6.27;;
2838;SDS011;1427;48.510;9.060;2023-05-07T08:56:58;53.07;;;6.07;;
2838;SDS011;1427;48.510;9.060;2023-05-07T08:59:27;50.97;;;5.27;;
2838;SDS011;1427;48.510;9.060;2023-05-07T09:01:55;49.93;;;4.97;;
2838;SDS011;1427;48.510;9.060;2023-05-07T09:04:23;49.50;;;4.90;;
2838;SDS011;1427;48.510;9.060;2023-05-07T09:06:52;50.10;;;5.57;;
2838;SDS011;1427;48.510;9.060;2023-05-07T09:09:21;48.37;;;4.77;;
2838;SDS011;1427;48.510;9.060;2023-05-07T09:11:54;49.77;;;5.50;;
2838;SDS011;1427;48.510;9.060;2023-05-07T09:14:24;51.20;;;5.50;;
2838;SDS011;1427;48.510;9.060;2023-05-07T09:16:53;47.90;;;4.17;;
2838;SDS011;1427;48.510;9.060;2023-05-07T09:19:22;49.00;;;6.23;;
2838;SDS011;1427;48.510;9.060;2023-05-07T09:21:58;51.80;;;4.53;;
2838;SDS011;1427;48.510;9.060;2023-05-07T09:24:27;48.93;;;5.00;;
2838;SDS011;1427;48.510;9.060;2023-05-07T09:26:59;65.30;;;9.03;;
2838;SDS011;1427;48.510;9.060;2023-05-07T09:29:28;49.67;;;5.80;;
2838;SDS011;1427;48.510;9.060;2023-05-07T09:32:01;50.10;;;5.00;;
2838;SDS011;1427;48.510;9.060;2023-05-07T09:34:30;51.50;;;5.67;;
2838;SDS011;1427;48.510;9.060;2023-05-07T09:37:00;51.83;;;5.53;;
2838;SDS011;1427;48.510;9.060;2023-05-07T09:39:38;52.90;;;5.87;;
2838;SDS011;1427;48.510;9.060;2023-05-07T09:42:06;49.37;;;5.57;;
2838;SDS011;1427;48.510;9.060;2023-05-07T09:44:34;49.20;;;5.83;;
2838;SDS011;1427;48.510;9.060;2023-05-07T09:47:04;50.17;;;5.93;;
2838;SDS011;1427;48.510;9.060;2023-05-07T09:49:34;48.70;;;5.47;;
2838;SDS011;1427;48.510;9.060;2023-05-07T09:52:05;48.80;;;4.90;;
2838;SDS011;1427;48.510;9.060;2023-05-07T09:54:35;53.60;;;5.17;;
2838;SDS011;1427;48.510;9.060;2023-05-07T09:57:04;49.17;;;4.73;;
2838;SDS011;1427;48.510;9.060;2023-05-07T09:59:33;48.53;;;4.90;;
2838;SDS011;1427;48.510;9.060;2023-05-07T10:02:04;48.47;;;4.47;;
2838;SDS011;1427;48.510;9.060;2023-05-07T10:04:32;48.87;;;5.20;;
2838;SDS011;1427;48.510;9.060;2023-05-07T10:07:01;56.90;;;5.70;;
2838;SDS011;1427;48.510;9.060;2023-05-07T10:09:32;49.53;;;5.70;;
2838;SDS011;1427;48.510;9.060;2023-05-07T10:12:04;49.50;;;5.70;;
2838;SDS011;1427;48.510;9.060;2023-05-07T10:14:33;49.90;;;5.53;;
2838;SDS011;1427;48.510;9.060;2023-05-07T10:17:02;50.30;;;5.47;;
2838;SDS011;1427;48.510;9.060;2023-05-07T10:19:30;48.30;;;4.87;;
2838;SDS011;1427;48.510;9.060;2023-05-07T10:22:01;48.10;;;4.40;;
2838;SDS011;1427;48.510;9.060;2023-05-07T10:24:32;49.27;;;5.43;;
2838;SDS011;1427;48.510;9.060;2023-05-07T10:27:03;51.33;;;4.70;;
2838;SDS011;1427;48.510;9.060;2023-05-07T10:29:37;48.50;;;5.37;;
2838;SDS011;1427;48.510;9.060;2023-05-07T10:32:29;49.50;;;5.13;;
2838;SDS011;1427;48.510;9.060;2023-05-07T10:35:03;48.60;;;4.83;;
2838;SDS011;1427;48.510;9.060;2023-05-07T10:37:38;53.60;;;7.30;;
2838;SDS011;1427;48.510;9.060;2023-05-07T10:40:07;49.40;;;4.97;;
2838;SDS011;1427;48.510;9.060;2023-05-07T10:42:37;51.90;;;6.23;;
2838;SDS011;1427;48.510;9.060;2023-05-07T10:45:11;51.23;;;6.30;;
2838;SDS011;1427;48.510;9.060;2023-05-07T10:50:44;50.10;;;5.37;;
2838;SDS011;1427;48.510;9.060;2023-05-07T10:53:24;50.00;;;5.10;;
2838;SDS011;1427;48.510;9.060;2023-05-07T10:58:53;48.60;;;5.20;;
2838;SDS011;1427;48.510;9.060;2023-05-07T11:04:21;48.60;;;5.23;;
2838;SDS011;1427;48.510;9.060;2023-05-07T11:10:00;48.87;;;5.30;;
2838;SDS011;1427;48.510;9.060;2023-05-07T11:15:41;47.97;;;4.63;;
2838;SDS011;1427;48.510;9.060;2023-05-07T11:18:11;49.97;;;6.50;;
2838;SDS011;1427;48.510;9.060;2023-05-07T11:20:45;49.30;;;5.10;;
2838;SDS011;1427;48.510;9.060;2023-05-07T11:26:26;50.50;;;6.43;;
2838;SDS011;1427;48.510;9.060;2023-05-07T11:28:58;51.63;;;5.70;;
2838;SDS011;1427;48.510;9.060;2023-05-07T11:31:27;50.30;;;6.07;;
2838;SDS011;1427;48.510;9.060;2023-05-07T11:33:56;50.30;;;6.80;;
2838;SDS011;1427;48.510;9.060;2023-05-07T11:36:25;51.00;;;6.90;;
2838;SDS011;1427;48.510;9.060;2023-05-07T11:38:59;50.30;;;5.50;;
2838;SDS011;1427;48.510;9.060;2023-05-07T11:41:36;49.50;;;6.17;;
2838;SDS011;1427;48.510;9.060;2023-05-07T11:44:07;50.53;;;7.13;;
2838;SDS011;1427;48.510;9.060;2023-05-07T11:46:35;49.00;;;5.73;;
2838;SDS011;1427;48.510;9.060;2023-05-07T11:49:03;49.63;;;5.20;;
2838;SDS011;1427;48.510;9.060;2023-05-07T11:51:33;50.13;;;6.60;;
2838;SDS011;1427;48.510;9.060;2023-05-07T11:54:03;53.17;;;6.00;;
2838;SDS011;1427;48.510;9.060;2023-05-07T11:56:36;50.13;;;6.30;;
2838;SDS011;1427;48.510;9.060;2023-05-07T11:59:04;49.07;;;5.67;;
2838;SDS011;1427;48.510;9.060;2023-05-07T12:01:34;50.00;;;6.03;;
2838;SDS011;1427;48.510;9.060;2023-05-07T12:04:03;49.20;;;5.93;;
2838;SDS011;1427;48.510;9.060;2023-05-07T12:06:35;51.83;;;6.50;;
2838;SDS011;1427;48.510;9.060;2023-05-07T12:09:04;50.20;;;6.53;;
2838;SDS011;1427;48.510;9.060;2023-05-07T12:11:39;48.67;;;4.60;;
2838;SDS011;1427;48.510;9.060;2023-05-07T12:14:07;49.50;;;6.07;;
2838;SDS011;1427;48.510;9.060;2023-05-07T12:16:38;49.93;;;5.77;;
2838;SDS011;1427;48.510;9.060;2023-05-07T12:19:07;49.60;;;6.13;;
2838;SDS011;1427;48.510;9.060;2023-05-07T12:21:41;49.87;;;6.53;;
2838;SDS011;1427;48.510;9.060;2023-05-07T12:24:09;50.90;;;7.47;;
2838;SDS011;1427;48.510;9.060;2023-05-07T12:26:38;52.40;;;7.33;;
2838;SDS011;1427;48.510;9.060;2023-05-07T12:29:07;49.30;;;5.70;;
2838;SDS011;1427;48.510;9.060;2023-05-07T12:31:35;52.93;;;6.37;;
2838;SDS011;1427;48.510;9.060;2023-05-07T12:34:03;49.77;;;6.00;;
2838;SDS011;1427;48.510;9.060;2023-05-07T12:36:36;50.10;;;6.17;;
2838;SDS011;1427;48.510;9.060;2023-05-07T12:39:05;49.53;;;6.87;;
2838;SDS011;1427;48.510;9.060;2023-05-07T12:41:35;50.43;;;6.40;;
2838;SDS011;1427;48.510;9.060;2023-05-07T12:44:20;50.20;;;6.43;;
2838;SDS011;1427;48.510;9.060;2023-05-07T12:46:49;56.30;;;8.63;;
2838;SDS011;1427;48.510;9.060;2023-05-07T12:49:18;49.40;;;6.00;;
2838;SDS011;1427;48.510;9.060;2023-05-07T12:51:50;50.10;;;6.23;;
2838;SDS011;1427;48.510;9.060;2023-05-07T12:54:27;49.20;;;4.90;;
2838;SDS011;1427;48.510;9.060;2023-05-07T12:57:02;47.33;;;2.70;;
2838;SDS011;1427;48.510;9.060;2023-05-07T12:59:33;49.07;;;2.90;;
2838;SDS011;1427;48.510;9.060;2023-05-07T13:02:03;48.03;;;3.37;;
2838;SDS011;1427;48.510;9.060;2023-05-07T13:04:32;47.67;;;2.73;;
2838;SDS011;1427;48.510;9.060;2023-05-07T13:07:00;47.27;;;2.70;;
2838;SDS011;1427;48.510;9.060;2023-05-07T13:09:28;46.87;;;2.53;;
2838;SDS011;1427;48.510;9.060;2023-05-07T13:11:58;54.23;;;8.33;;
2838;SDS011;1427;48.510;9.060;2023-05-07T13:14:27;52.37;;;8.20;;
2838;SDS011;1427;48.510;9.060;2023-05-07T13:16:57;53.20;;;6.73;;
2838;SDS011;1427;48.510;9.060;2023-05-07T13:19:24;52.07;;;5.37;;
2838;SDS011;1427;48.510;9.060;2023-05-07T13:21:56;51.60;;;6.57;;
2838;SDS011;1427;48.510;9.060;2023-05-07T13:24:24;50.43;;;5.93;;
2838;SDS011;1427;48.510;9.060;2023-05-07T13:26:52;50.87;;;4.40;;
2838;SDS011;1427;48.510;9.060;2023-05-07T13:29:20;51.03;;;3.00;;
2838;SDS011;1427;48.510;9.060;2023-05-07T13:31:51;48.80;;;3.20;;
2838;SDS011;1427;48.510;9.060;2023-05-07T13:34:20;48.07;;;2.63;;
2838;SDS011;1427;48.510;9.060;2023-05-07T13:36:49;51.90;;;2.97;;
2838;SDS011;1427;48.510;9.060;2023-05-07T13:39:17;48.37;;;4.10;;
2838;SDS011;1427;48.510;9.060;2023-05-07T13:41:45;52.20;;;8.40;;
2838;SDS011;1427;48.510;9.060;2023-05-07T13:44:13;51.50;;;7.63;;
2838;SDS011;1427;48.510;9.060;2023-05-07T13:46:41;51.47;;;7.43;;
2838;SDS011;1427;48.510;9.060;2023-05-07T13:49:09;49.80;;;6.80;;
2838;SDS011;1427;48.510;9.060;2023-05-07T13:51:40;49.33;;;6.40;;
2838;SDS011;1427;48.510;9.060;2023-05-07T13:54:08;51.37;;;6.50;;
2838;SDS011;1427;48.510;9.060;2023-05-07T13:56:36;51.80;;;6.40;;
2838;SDS011;1427;48.510;9.060;2023-05-07T13:59:04;48.97;;;5.17;;
2838;SDS011;1427;48.510;9.060;2023-05-07T14:01:32;51.20;;;6.90;;
2838;SDS011;1427;48.510;9.060;2023-05-07T14:04:00;51.40;;;7.13;;
2838;SDS011;1427;48.510;9.060;2023-05-07T14:06:28;50.03;;;6.20;;
2838;SDS011;1427;48.510;9.060;2023-05-07T14:08:57;51.23;;;5.90;;
2838;SDS011;1427;48.510;9.060;2023-05-07T14:11:26;50.20;;;6.13;;
2838;SDS011;1427;48.510;9.060;2023-05-07T14:13:54;49.03;;;5.40;;
2838;SDS011;1427;48.510;9.060;2023-05-07T14:16:23;50.57;;;6.37;;
2838;SDS011;1427;48.510;9.060;2023-05-07T14:18:51;50.33;;;6.87;;
2838;SDS011;1427;48.510;9.060;2023-05-07T14:21:23;49.50;;;6.50;;
2838;SDS011;1427;48.510;9.060;2023-05-07T14:23:51;50.37;;;6.70;;
2838;SDS011;1427;48.510;9.060;2023-05-07T14:26:21;57.10;;;7.73;;
2838;SDS011;1427;48.510;9.060;2023-05-07T14:28:49;50.10;;;6.60;;
2838;SDS011;1427;48.510;9.060;2023-05-07T14:31:17;50.77;;;7.10;;
2838;SDS011;1427;48.510;9.060;2023-05-07T14:33:45;50.77;;;6.20;;
2838;SDS011;1427;48.510;9.060;2023-05-07T14:36:13;52.63;;;7.87;;
2838;SDS011;1427;48.510;9.060;2023-05-07T14:38:41;51.13;;;6.63;;
2838;SDS011;1427;48.510;9.060;2023-05-07T14:41:09;50.57;;;6.87;;
2838;SDS011;1427;48.510;9.060;2023-05-07T14:43:39;50.30;;;6.70;;
2838;SDS011;1427;48.510;9.060;2023-05-07T14:46:07;50.77;;;6.23;;
2838;SDS011;1427;48.510;9.060;2023-05-07T14:48:35;50.63;;;6.33;;
2838;SDS011;1427;48.510;9.060;2023-05-07T14:51:03;54.73;;;5.50;;
2838;SDS011;1427;48.510;9.060;2023-05-07T14:53:31;51.60;;;6.60;;
2838;SDS011;1427;48.510;9.060;2023-05-07T14:55:59;52.40;;;6.87;;
2838;SDS011;1427;48.510;9.060;2023-05-07T14:58:27;51.20;;;5.30;;
2838;SDS011;1427;48.510;9.060;2023-05-07T15:00:56;52.33;;;6.57;;
2838;SDS011;1427;48.510;9.060;2023-05-07T15:03:24;51.30;;;6.40;;
2838;SDS011;1427;48.510;9.060;2023-05-07T15:05:52;51.07;;;6.73;;
2838;SDS011;1427;48.510;9.060;2023-05-07T15:08:20;50.30;;;5.37;;
2838;SDS011;1427;48.510;9.060;2023-05-07T15:10:49;52.07;;;7.77;;
2838;SDS011;1427;48.510;9.060;2023-05-07T15:13:17;50.37;;;5.87;;
2838;SDS011;1427;48.510;9.060;2023-05-07T15:15:45;50.17;;;6.23;;
2838;SDS011;1427;48.510;9.060;2023-05-07T15:18:14;51.00;;;6.90;;
2838;SDS011;1427;48.510;9.060;2023-05-07T15:20:43;51.53;;;7.27;;
2838;SDS011;1427;48.510;9.060;2023-05-07T15:23:11;50.03;;;6.37;;
2838;SDS011;1427;48.510;9.060;2023-05-07T15:25:40;49.17;;;5.47;;
2838;SDS011;1427;48.510;9.060;2023-05-07T15:28:08;56.47;;;9.20;;
2838;SDS011;1427;48.510;9.060;2023-05-07T15:30:36;54.60;;;8.30;;